Angmagssalik, Greenland
Current Conditions -  °F | °C
As of 11:50 PM on Tuesday 25 Nov 2014 (Local Time) from BGKK Reporting Station
Clear Clear  
Wind Chill: 20°   Ceiling: Unl
Heat Index: 28°   Visibility: 6mi
Dew Point: 23°   Wind: 9mph
Humidity: 80%   Direction: 200°SSW
Pressure: 29.18"   Gusts: NA
Location:  65.61°N, 37.68°W
Report Text: BGKK 260150Z AUTO 20008KT 9999NDV NCD M02/M05 Q0988
Loading
Personal Weather Stations






























Interactive Weather Map New forecast layout! Learn more

10-Day Weather Forecast

Advertisements
Track Severe Weather on mobile